Kuriakos — 2HND6 — position and weather

sailwx.info

Track history (hours):
 
Tides and Currents Weather Stations Pressure Air Temp Water Temp Dewpoint Dewpoint Depression Visibility Wind Speed Wind Dir Waves Ship Positions

Kuriakos

Last reported at 2017-Dec-16 16:29 UTC. Time now 2017-Dec-16 17:00 UTC.
Position N 37°56' E 023°41'.

Length 32 m.

Type: Pleasure craft. MMSI: 235105017.

Date/timePositionNaut miles runAvg speedWind from/ knotsBaromVisibWave heightAir tempDewpointWater temp
2017-Dec-16 16:29N 37°56' E 023°41'0 0.0
2017-Dec-16 15:59N 37°56' E 023°41'0 0.0
2017-Dec-16 15:29N 37°56' E 023°41'0 0.0
2017-Dec-16 14:59N 37°56' E 023°41'0 0.0
2017-Dec-16 14:29N 37°56' E 023°41'0 0.0
2017-Dec-16 13:59N 37°56' E 023°41'0 0.0
2017-Dec-16 13:29N 37°56' E 023°41'0 0.0
2017-Dec-16 12:59N 37°56' E 023°41'0 0.0
2017-Dec-16 12:29N 37°56' E 023°41'0 0.0
2017-Dec-16 11:59N 37°56' E 023°41'0 0.0
2017-Dec-16 11:29N 37°56' E 023°41'0 0.0
2017-Dec-16 10:59N 37°56' E 023°41'0 0.0
2017-Dec-16 10:29N 37°56' E 023°41'0 0.0
2017-Dec-16 09:59N 37°56' E 023°41'0 0.0
2017-Dec-16 09:29N 37°56' E 023°41'0 0.0
2017-Dec-16 08:59N 37°56' E 023°41'0 0.0
2017-Dec-16 08:29N 37°56' E 023°41'0 0.0
2017-Dec-16 07:59N 37°56' E 023°41'0 0.0
2017-Dec-16 07:29N 37°56' E 023°41'0 0.0
2017-Dec-16 06:59N 37°56' E 023°41'0 0.0
2017-Dec-16 06:29N 37°56' E 023°41'0 0.0
2017-Dec-16 05:59N 37°56' E 023°41'0 0.0
2017-Dec-16 05:29N 37°56' E 023°41'0 0.0
2017-Dec-16 04:59N 37°56' E 023°41'0 0.0
2017-Dec-16 04:29N 37°56' E 023°41'0 0.0
2017-Dec-16 03:59N 37°56' E 023°41'0 0.0
2017-Dec-16 03:29N 37°56' E 023°41'0 0.0
2017-Dec-16 02:59N 37°56' E 023°41'0 0.0
2017-Dec-16 02:29N 37°56' E 023°41'0 0.0
2017-Dec-16 01:59N 37°56' E 023°41'0 0.0
2017-Dec-16 01:29N 37°56' E 023°41'0 0.0
2017-Dec-16 00:59N 37°56' E 023°41'0 0.0
2017-Dec-16 00:29N 37°56' E 023°41'0 0.0
2017-Dec-15 23:59N 37°56' E 023°41'0 0.0
2017-Dec-15 23:29N 37°56' E 023°41'0 0.0
2017-Dec-15 22:59N 37°56' E 023°41'0 0.0
2017-Dec-15 22:29N 37°56' E 023°41'0 0.0
2017-Dec-15 21:59N 37°56' E 023°41'0 0.0
2017-Dec-15 21:29N 37°56' E 023°41'0 0.0
2017-Dec-15 20:58N 37°56' E 023°41'0 0.0
2017-Dec-15 20:28N 37°56' E 023°41'0 0.0
2017-Dec-15 19:58N 37°56' E 023°41'0 0.0
2017-Dec-15 19:28N 37°56' E 023°41'0 0.0
2017-Dec-15 18:58N 37°56' E 023°41'0 0.0
2017-Dec-15 18:28N 37°56' E 023°41'0 0.0
2017-Dec-15 17:55N 37°56' E 023°41'0 0.0
2017-Dec-15 17:28N 37°56' E 023°41'0 0.0
2017-Dec-15 16:58N 37°56' E 023°41'0 0.0
2017-Dec-15 16:28N 37°56' E 023°41'0 0.0
2017-Dec-15 15:58N 37°56' E 023°41'0 0.0
2017-Dec-15 15:28N 37°56' E 023°41'0 0.0
2017-Dec-15 14:58N 37°56' E 023°41'0 0.0
2017-Dec-15 14:28N 37°56' E 023°41'0 0.0
2017-Dec-15 13:58N 37°56' E 023°41'0 0.0
2017-Dec-15 13:28N 37°56' E 023°41'0 0.0
2017-Dec-15 12:58N 37°56' E 023°41'0 0.0
2017-Dec-15 12:28N 37°56' E 023°41'0 0.0
2017-Dec-15 11:58N 37°56' E 023°41'0 0.0
2017-Dec-15 11:28N 37°56' E 023°41'0 0.0
2017-Dec-15 10:58N 37°56' E 023°41'0 0.0
2017-Dec-15 10:28N 37°56' E 023°41'0 0.0
2017-Dec-15 09:58N 37°56' E 023°41'0 0.0
2017-Dec-15 09:28N 37°56' E 023°41'2 3.6
2017-Dec-15 09:00N 37°55' E 023°40'5 9.9
2017-Dec-15 08:29N 37°50' E 023°38'5 9.6
2017-Dec-15 08:01N 37°45' E 023°37'5 9.6
2017-Dec-15 07:31N 37°40' E 023°36'20 0.9
2017-Dec-14 07:52N 37°22' E 023°25'28 9.1
2017-Dec-14 04:50N 37°48' E 023°38'3 9.6
2017-Dec-14 04:30N 37°51' E 023°39'5 9.4
2017-Dec-14 03:59N 37°56' E 023°41'0 0.3
2017-Dec-14 03:21N 37°56' E 023°41'  
2017-Dec-08 15:40N 37°56' E 023°41'0 0.3
2017-Dec-08 15:31N 37°56' E 023°41'5 9.8
2017-Dec-08 15:00N 37°54' E 023°35'510.5
2017-Dec-08 14:30N 37°53' E 023°29'4 9.0
2017-Dec-08 14:00N 37°54' E 023°23'5 9.4
2017-Dec-08 13:30N 37°57' E 023°28'1 2.2
2017-Dec-08 12:59N 37°57' E 023°29'0 0.0
2017-Dec-08 12:28N 37°57' E 023°29'0 0.0
2017-Dec-08 11:58N 37°57' E 023°29'0 0.0
2017-Dec-08 11:28N 37°57' E 023°29'0 0.0
2017-Dec-08 10:55N 37°57' E 023°29'0 0.0
2017-Dec-08 10:25N 37°57' E 023°29'0 0.0
2017-Dec-08 09:58N 37°57' E 023°29'0 0.0
2017-Dec-08 09:29N 37°57' E 023°29'0 0.1
2017-Dec-08 09:00N 37°57' E 023°29'3 5.7
2017-Dec-08 08:30N 37°58' E 023°26'4 7.1
2017-Dec-08 07:58N 38°00' E 023°29'3 6.8
2017-Dec-08 07:30N 37°59' E 023°33'3 5.6
2017-Dec-08 07:00N 37°56' E 023°34'3 6.3
2017-Dec-08 06:30N 37°55' E 023°37'3 5.9
2017-Dec-08 05:59N 37°56' E 023°41'  
Track history (hours):
 
Tides and Currents Weather Stations Pressure Air Temp Water Temp Dewpoint Dewpoint Depression Visibility Wind Speed Wind Dir Waves Ship Positions

Kuriakos

Last reported at 2017-Dec-16 16:29 UTC. Time now 2017-Dec-16 17:00 UTC.
Position N 37°56' E 023°41'.

Length 32 m.

Type: Pleasure craft. MMSI: 235105017.

Date/timePositionNaut miles runAvg speedWind from/ knotsBaromVisibWave heightAir tempDewpointWater temp
2017-Dec-16 16:29N 37°56' E 023°41'0 0.0
2017-Dec-16 15:59N 37°56' E 023°41'0 0.0
2017-Dec-16 15:29N 37°56' E 023°41'0 0.0
2017-Dec-16 14:59N 37°56' E 023°41'0 0.0
2017-Dec-16 14:29N 37°56' E 023°41'0 0.0
2017-Dec-16 13:59N 37°56' E 023°41'0 0.0
2017-Dec-16 13:29N 37°56' E 023°41'0 0.0
2017-Dec-16 12:59N 37°56' E 023°41'0 0.0
2017-Dec-16 12:29N 37°56' E 023°41'0 0.0
2017-Dec-16 11:59N 37°56' E 023°41'0 0.0
2017-Dec-16 11:29N 37°56' E 023°41'0 0.0
2017-Dec-16 10:59N 37°56' E 023°41'0 0.0
2017-Dec-16 10:29N 37°56' E 023°41'0 0.0
2017-Dec-16 09:59N 37°56' E 023°41'0 0.0
2017-Dec-16 09:29N 37°56' E 023°41'0 0.0
2017-Dec-16 08:59N 37°56' E 023°41'0 0.0
2017-Dec-16 08:29N 37°56' E 023°41'0 0.0
2017-Dec-16 07:59N 37°56' E 023°41'0 0.0
2017-Dec-16 07:29N 37°56' E 023°41'0 0.0
2017-Dec-16 06:59N 37°56' E 023°41'0 0.0
2017-Dec-16 06:29N 37°56' E 023°41'0 0.0
2017-Dec-16 05:59N 37°56' E 023°41'0 0.0
2017-Dec-16 05:29N 37°56' E 023°41'0 0.0
2017-Dec-16 04:59N 37°56' E 023°41'0 0.0
2017-Dec-16 04:29N 37°56' E 023°41'0 0.0
2017-Dec-16 03:59N 37°56' E 023°41'0 0.0
2017-Dec-16 03:29N 37°56' E 023°41'0 0.0
2017-Dec-16 02:59N 37°56' E 023°41'0 0.0
2017-Dec-16 02:29N 37°56' E 023°41'0 0.0
2017-Dec-16 01:59N 37°56' E 023°41'0 0.0
2017-Dec-16 01:29N 37°56' E 023°41'0 0.0
2017-Dec-16 00:59N 37°56' E 023°41'0 0.0
2017-Dec-16 00:29N 37°56' E 023°41'0 0.0
2017-Dec-15 23:59N 37°56' E 023°41'0 0.0
2017-Dec-15 23:29N 37°56' E 023°41'0 0.0
2017-Dec-15 22:59N 37°56' E 023°41'0 0.0
2017-Dec-15 22:29N 37°56' E 023°41'0 0.0
2017-Dec-15 21:59N 37°56' E 023°41'0 0.0
2017-Dec-15 21:29N 37°56' E 023°41'0 0.0
2017-Dec-15 20:58N 37°56' E 023°41'0 0.0
2017-Dec-15 20:28N 37°56' E 023°41'0 0.0
2017-Dec-15 19:58N 37°56' E 023°41'0 0.0
2017-Dec-15 19:28N 37°56' E 023°41'0 0.0
2017-Dec-15 18:58N 37°56' E 023°41'0 0.0
2017-Dec-15 18:28N 37°56' E 023°41'0 0.0
2017-Dec-15 17:55N 37°56' E 023°41'0 0.0
2017-Dec-15 17:28N 37°56' E 023°41'0 0.0
2017-Dec-15 16:58N 37°56' E 023°41'0 0.0
2017-Dec-15 16:28N 37°56' E 023°41'0 0.0
2017-Dec-15 15:58N 37°56' E 023°41'0 0.0
2017-Dec-15 15:28N 37°56' E 023°41'0 0.0
2017-Dec-15 14:58N 37°56' E 023°41'0 0.0
2017-Dec-15 14:28N 37°56' E 023°41'0 0.0
2017-Dec-15 13:58N 37°56' E 023°41'0 0.0
2017-Dec-15 13:28N 37°56' E 023°41'0 0.0
2017-Dec-15 12:58N 37°56' E 023°41'0 0.0
2017-Dec-15 12:28N 37°56' E 023°41'0 0.0
2017-Dec-15 11:58N 37°56' E 023°41'0 0.0
2017-Dec-15 11:28N 37°56' E 023°41'0 0.0
2017-Dec-15 10:58N 37°56' E 023°41'0 0.0
2017-Dec-15 10:28N 37°56' E 023°41'0 0.0
2017-Dec-15 09:58N 37°56' E 023°41'0 0.0
2017-Dec-15 09:28N 37°56' E 023°41'2 3.6
2017-Dec-15 09:00N 37°55' E 023°40'5 9.9
2017-Dec-15 08:29N 37°50' E 023°38'5 9.6
2017-Dec-15 08:01N 37°45' E 023°37'5 9.6
2017-Dec-15 07:31N 37°40' E 023°36'20 0.9
2017-Dec-14 07:52N 37°22' E 023°25'28 9.1
2017-Dec-14 04:50N 37°48' E 023°38'3 9.6
2017-Dec-14 04:30N 37°51' E 023°39'5 9.4
2017-Dec-14 03:59N 37°56' E 023°41'0 0.3
2017-Dec-14 03:21N 37°56' E 023°41'  
2017-Dec-08 15:40N 37°56' E 023°41'0 0.3
2017-Dec-08 15:31N 37°56' E 023°41'5 9.8
2017-Dec-08 15:00N 37°54' E 023°35'510.5
2017-Dec-08 14:30N 37°53' E 023°29'4 9.0
2017-Dec-08 14:00N 37°54' E 023°23'5 9.4
2017-Dec-08 13:30N 37°57' E 023°28'1 2.2
2017-Dec-08 12:59N 37°57' E 023°29'0 0.0
2017-Dec-08 12:28N 37°57' E 023°29'0 0.0
2017-Dec-08 11:58N 37°57' E 023°29'0 0.0
2017-Dec-08 11:28N 37°57' E 023°29'0 0.0
2017-Dec-08 10:55N 37°57' E 023°29'0 0.0
2017-Dec-08 10:25N 37°57' E 023°29'0 0.0
2017-Dec-08 09:58N 37°57' E 023°29'0 0.0
2017-Dec-08 09:29N 37°57' E 023°29'0 0.1
2017-Dec-08 09:00N 37°57' E 023°29'3 5.7
2017-Dec-08 08:30N 37°58' E 023°26'4 7.1
2017-Dec-08 07:58N 38°00' E 023°29'3 6.8
2017-Dec-08 07:30N 37°59' E 023°33'3 5.6
2017-Dec-08 07:00N 37°56' E 023°34'3 6.3
2017-Dec-08 06:30N 37°55' E 023°37'3 5.9
2017-Dec-08 05:59N 37°56' E 023°41'  

Dump ship's entire track history